createdAt,value
2017-09-18T04:26:08.116Z,315.00
2017-09-18T04:26:24.393Z,315.00
2017-09-18T04:26:59.734Z,315.00
2017-09-18T04:27:13.879Z,315.00
2017-09-18T04:27:26.385Z,315.00
2017-09-18T04:27:55.816Z,315.00
2017-09-18T04:28:15.425Z,315.00
2017-09-18T04:28:32.434Z,315.00
2017-09-18T04:29:05.569Z,315.00
2017-09-18T04:29:27.142Z,315.00
2017-09-18T04:29:48.055Z,315.00
2017-09-18T04:30:12.135Z,315.00
2017-09-18T04:30:29.603Z,315.00
2017-09-18T04:30:55.092Z,315.00
2017-09-18T04:31:30.026Z,315.00
2017-09-18T04:32:05.907Z,315.00
2017-09-18T04:33:06.912Z,315.00
2017-09-18T04:39:27.098Z,315.00
2017-09-18T04:40:05.730Z,315.00
2017-09-18T04:40:21.971Z,315.00
2017-09-18T04:40:35.342Z,315.00
2017-09-18T04:40:43.991Z,315.00
2017-09-18T04:41:05.624Z,315.00
2017-09-18T04:41:22.328Z,315.00
2017-09-18T04:41:44.287Z,315.00
2017-09-18T04:41:58.613Z,315.00
2017-09-18T04:42:26.761Z,315.00
2017-09-18T04:42:36.327Z,315.00
2017-09-18T04:42:49.668Z,315.00
2017-09-18T04:43:11.733Z,315.00
2017-09-18T04:43:34.649Z,315.00
2017-09-18T04:43:50.259Z,315.00
2017-09-18T04:43:57.889Z,315.00
2017-09-18T04:44:12.617Z,315.00
2017-09-18T04:44:41.554Z,0.00
2017-09-18T04:44:50.142Z,45.00
2017-09-18T04:45:06.197Z,45.00
2017-09-18T04:45:14.027Z,45.00
2017-09-18T04:45:31.704Z,45.00
2017-09-18T04:45:54.151Z,45.00
2017-09-18T04:46:10.821Z,45.00
2017-09-18T04:46:36.443Z,45.00
2017-09-18T04:46:52.919Z,45.00
2017-09-18T04:47:04.416Z,45.00
2017-09-18T04:47:18.988Z,45.00
2017-09-18T04:47:38.090Z,45.00
2017-09-18T04:47:53.128Z,45.00
2017-09-18T04:48:04.997Z,45.00
2017-09-18T04:48:35.273Z,45.00
2017-09-18T04:49:03.647Z,45.00
2017-09-18T04:49:18.826Z,67.50
2017-09-18T04:49:26.737Z,157.50
2017-09-18T04:49:42.415Z,225.00
2017-09-18T04:49:50.469Z,225.00
2017-09-18T04:49:58.788Z,225.00
2017-09-18T04:50:06.916Z,225.00
2017-09-18T04:50:14.682Z,225.00
2017-09-18T04:50:22.815Z,225.00
2017-09-18T04:50:39.550Z,225.00
2017-09-18T04:51:00.548Z,225.00
2017-09-18T04:51:21.313Z,225.00
2017-09-18T04:51:29.045Z,225.00
2017-09-18T04:51:45.910Z,135.00
2017-09-18T04:51:54.340Z,135.00
2017-09-18T04:52:09.478Z,135.00
2017-09-18T04:52:19.994Z,135.00
2017-09-18T04:55:54.960Z,225.00
2017-09-18T04:57:23.444Z,315.00
2017-09-18T04:59:11.809Z,315.00
2017-09-18T05:03:41.414Z,315.00
2017-09-18T05:03:49.264Z,315.00
2017-09-18T05:04:11.834Z,315.00
2017-09-18T05:04:19.553Z,315.00
2017-09-18T05:04:27.501Z,315.00
2017-09-18T05:04:35.624Z,315.00
2017-09-18T05:04:52.038Z,315.00
2017-09-18T05:05:18.510Z,315.00
2017-09-18T05:05:32.659Z,315.00
2017-09-18T05:05:41.425Z,315.00
2017-09-18T05:05:57.142Z,315.00
2017-09-18T05:06:06.778Z,315.00
2017-09-18T05:06:16.448Z,315.00
2017-09-18T05:06:27.982Z,315.00
2017-09-18T05:06:40.682Z,315.00
2017-09-18T05:06:57.630Z,315.00
2017-09-18T05:07:21.981Z,315.00
2017-09-18T05:07:29.421Z,315.00
2017-09-18T05:07:37.745Z,315.00
2017-09-18T05:07:54.975Z,315.00
2017-09-18T05:08:08.574Z,315.00
2017-09-18T05:08:25.925Z,315.00
2017-09-18T05:08:44.505Z,315.00
2017-09-18T05:09:03.041Z,315.00
2017-09-18T05:09:10.485Z,315.00
2017-09-18T05:09:18.813Z,315.00
2017-09-18T05:09:33.577Z,315.00
2017-09-18T05:09:41.113Z,315.00
2017-09-18T05:09:56.602Z,315.00
2017-09-18T05:10:04.825Z,315.00
2017-09-18T05:10:23.482Z,315.00
2017-09-18T05:10:31.333Z,315.00
2017-09-18T05:10:39.682Z,315.00
2017-09-18T05:10:54.033Z,315.00
2017-09-18T05:11:01.765Z,315.00
2017-09-18T05:11:09.722Z,315.00
2017-09-18T05:11:25.161Z,315.00
2017-09-18T05:11:33.614Z,315.00
2017-09-18T05:11:41.934Z,315.00
2017-09-18T05:11:49.882Z,315.00
2017-09-18T05:12:14.265Z,315.00
2017-09-18T05:12:29.631Z,315.00
2017-09-18T05:13:00.609Z,315.00
2017-09-18T05:13:08.721Z,315.00
2017-09-18T05:13:16.657Z,315.00
2017-09-18T05:13:30.533Z,315.00
2017-09-18T05:13:38.961Z,315.00
2017-09-18T05:13:46.915Z,315.00
2017-09-18T05:13:55.053Z,315.00
2017-09-18T05:14:03.376Z,315.00
2017-09-18T05:14:11.317Z,315.00
2017-09-18T05:14:19.449Z,315.00
2017-09-18T05:14:27.790Z,0.00
2017-09-18T05:14:40.862Z,270.00
2017-09-18T05:14:48.281Z,270.00
2017-09-18T05:14:56.401Z,270.00
2017-09-18T05:15:13.708Z,270.00
2017-09-18T05:15:38.842Z,270.00
2017-09-18T05:15:52.125Z,270.00
2017-09-18T05:16:22.281Z,270.00
2017-09-18T05:16:49.953Z,270.00
2017-09-18T05:17:07.570Z,270.00
2017-09-18T05:17:24.135Z,270.00
2017-09-18T05:17:40.147Z,270.00
2017-09-18T05:17:48.087Z,270.00
2017-09-18T05:18:03.466Z,270.00
2017-09-18T05:18:21.246Z,270.00
2017-09-18T05:18:37.469Z,270.00
2017-09-18T05:18:58.373Z,270.00
2017-09-18T05:19:06.801Z,270.00
2017-09-18T05:19:31.161Z,270.00
2017-09-18T05:19:44.445Z,270.00
2017-09-18T05:19:58.831Z,270.00
2017-09-18T05:20:20.649Z,270.00
2017-09-18T05:20:35.543Z,270.00
2017-09-18T05:20:50.497Z,270.00
2017-09-18T05:21:05.083Z,270.00
2017-09-18T05:21:13.311Z,270.00
2017-09-18T05:21:21.242Z,270.00
2017-09-18T05:21:36.685Z,270.00
2017-09-18T05:21:45.121Z,270.00
2017-09-18T05:22:04.494Z,270.00
2017-09-18T05:22:11.853Z,270.00
2017-09-18T05:22:20.182Z,270.00
2017-09-18T05:22:28.141Z,270.00
2017-09-18T05:22:43.275Z,270.00
2017-09-18T05:22:55.575Z,270.00
2017-09-18T05:23:13.414Z,270.00
2017-09-18T05:23:21.360Z,270.00
2017-09-18T05:23:35.229Z,270.00
2017-09-18T05:23:43.455Z,270.00
2017-09-18T05:24:04.529Z,270.00
2017-09-18T05:24:18.745Z,270.00
2017-09-18T05:24:33.421Z,270.00
2017-09-18T05:24:42.627Z,270.00
2017-09-18T05:24:50.198Z,270.00
2017-09-18T05:25:14.787Z,270.00
2017-09-18T05:25:22.091Z,270.00
2017-09-18T05:25:40.238Z,270.00
2017-09-18T05:25:49.182Z,270.00
2017-09-18T05:26:10.981Z,270.00
2017-09-18T05:26:18.927Z,270.00
2017-09-18T05:26:34.482Z,270.00
2017-09-18T05:26:47.563Z,270.00
2017-09-18T05:26:55.185Z,270.00
2017-09-18T05:27:03.478Z,270.00
2017-09-18T05:27:23.947Z,270.00
2017-09-18T05:27:50.692Z,270.00
2017-09-18T05:27:58.424Z,270.00
2017-09-18T05:28:11.959Z,270.00
2017-09-18T05:28:20.504Z,270.00
2017-09-18T05:28:29.009Z,270.00
2017-09-18T05:28:36.785Z,270.00
2017-09-18T05:28:51.841Z,270.00
2017-09-18T05:29:04.894Z,270.00
2017-09-18T05:29:19.769Z,270.00
2017-09-18T05:29:44.641Z,0.00
2017-09-18T05:30:06.220Z,45.00
2017-09-18T05:30:14.114Z,45.00
2017-09-18T05:30:32.487Z,45.00
2017-09-18T05:30:44.660Z,45.00
2017-09-18T05:31:02.715Z,45.00
2017-09-18T05:31:16.687Z,45.00
2017-09-18T05:31:24.910Z,45.00
2017-09-18T05:31:46.994Z,45.00
2017-09-18T05:32:00.625Z,45.00
2017-09-18T05:32:15.709Z,45.00
2017-09-18T05:32:23.134Z,45.00
2017-09-18T05:32:31.290Z,45.00
2017-09-18T05:32:49.553Z,45.00
2017-09-18T05:33:07.725Z,45.00
2017-09-18T05:33:26.067Z,45.00
2017-09-18T05:33:51.250Z,45.00
2017-09-18T05:34:06.739Z,45.00
2017-09-18T05:34:18.569Z,45.00
2017-09-18T05:34:34.523Z,45.00
2017-09-18T05:34:43.716Z,45.00
2017-09-18T05:34:51.657Z,45.00
2017-09-18T05:34:59.429Z,45.00
2017-09-18T05:35:08.131Z,45.00
2017-09-18T05:35:29.134Z,45.00
2017-09-18T05:35:37.839Z,45.00
2017-09-18T05:35:46.370Z,45.00
2017-09-18T05:36:03.062Z,45.00
2017-09-18T05:36:11.101Z,45.00
2017-09-18T05:36:29.066Z,45.00
2017-09-18T05:36:46.214Z,45.00
2017-09-18T05:36:53.564Z,45.00
2017-09-18T05:37:09.218Z,45.00
2017-09-18T05:37:27.669Z,45.00
2017-09-18T05:37:43.519Z,45.00
2017-09-18T05:38:08.893Z,45.00
2017-09-18T05:38:32.023Z,45.00
2017-09-18T05:38:39.673Z,45.00
2017-09-18T05:38:54.193Z,45.00
2017-09-18T05:39:02.693Z,45.00
2017-09-18T05:39:21.733Z,45.00
2017-09-18T05:39:33.289Z,45.00
2017-09-18T05:39:49.643Z,45.00
2017-09-18T05:40:01.801Z,45.00
2017-09-18T05:40:18.337Z,90.00
2017-09-18T05:40:25.591Z,90.00
2017-09-18T05:40:42.483Z,90.00
2017-09-18T05:40:51.100Z,90.00
2017-09-18T05:40:59.067Z,90.00
2017-09-18T05:41:07.545Z,90.00
2017-09-18T05:41:21.084Z,90.00
2017-09-18T05:41:29.479Z,90.00
2017-09-18T05:41:55.666Z,90.00
2017-09-18T05:42:04.845Z,90.00
2017-09-18T05:42:15.792Z,90.00
2017-09-18T05:42:35.479Z,45.00
2017-09-18T05:42:44.234Z,45.00
2017-09-18T05:42:52.169Z,0.00
2017-09-18T05:43:00.513Z,0.00
2017-09-18T05:43:12.360Z,0.00
2017-09-18T05:43:30.738Z,0.00
2017-09-18T05:43:43.438Z,0.00
2017-09-18T05:43:57.686Z,0.00
2017-09-18T05:44:13.869Z,0.00
2017-09-18T05:44:29.715Z,0.00
2017-09-18T05:44:37.413Z,0.00
2017-09-18T05:44:51.919Z,0.00
2017-09-18T05:44:59.333Z,0.00
2017-09-18T05:45:15.195Z,0.00
2017-09-18T05:45:23.229Z,0.00
2017-09-18T05:45:31.372Z,0.00
2017-09-18T05:45:49.869Z,0.00
2017-09-18T05:46:02.326Z,0.00
2017-09-18T05:46:17.361Z,0.00
2017-09-18T05:46:26.005Z,0.00
2017-09-18T05:46:34.329Z,0.00
2017-09-18T05:46:52.218Z,0.00
2017-09-18T05:47:01.058Z,0.00
2017-09-18T05:47:30.187Z,0.00
2017-09-18T05:47:53.354Z,0.00
2017-09-18T05:48:17.143Z,45.00
2017-09-18T05:48:31.885Z,45.00
2017-09-18T05:48:48.457Z,45.00
2017-09-18T05:48:56.274Z,45.00
2017-09-18T05:49:04.259Z,45.00
2017-09-18T05:49:20.218Z,45.00
2017-09-18T05:49:28.079Z,45.00
2017-09-18T05:49:36.394Z,45.00
2017-09-18T05:50:06.254Z,45.00
2017-09-18T05:50:22.051Z,45.00
2017-09-18T05:50:29.877Z,45.00
2017-09-18T05:50:43.942Z,45.00
2017-09-18T05:50:52.533Z,45.00
2017-09-18T05:51:00.470Z,45.00
2017-09-18T05:51:08.230Z,45.00
2017-09-18T05:51:16.365Z,45.00
2017-09-18T05:51:30.754Z,45.00
2017-09-18T05:51:47.201Z,45.00
2017-09-18T05:52:06.066Z,45.00
2017-09-18T05:52:28.256Z,45.00
2017-09-18T05:52:36.741Z,45.00
2017-09-18T05:52:51.495Z,45.00
2017-09-18T05:53:09.716Z,45.00
2017-09-18T05:53:29.246Z,45.00
2017-09-18T05:53:49.459Z,45.00
2017-09-18T05:54:07.113Z,45.00
2017-09-18T05:54:25.453Z,45.00
2017-09-18T05:54:34.097Z,45.00
2017-09-18T05:54:46.659Z,45.00
2017-09-18T05:54:54.403Z,45.00
2017-09-18T05:55:19.978Z,45.00
2017-09-18T05:55:36.155Z,315.00
2017-09-18T05:55:57.021Z,315.00
2017-09-18T05:56:11.974Z,315.00
2017-09-18T05:56:29.282Z,315.00
2017-09-18T05:56:43.715Z,315.00
2017-09-18T05:57:06.189Z,315.00
2017-09-18T05:57:14.107Z,315.00
2017-09-18T05:57:27.470Z,315.00
2017-09-18T05:57:36.413Z,315.00
2017-09-18T05:57:44.145Z,315.00
2017-09-18T05:58:04.223Z,315.00
2017-09-18T05:58:12.657Z,315.00
2017-09-18T05:58:26.710Z,315.00
2017-09-18T05:58:48.094Z,315.00
2017-09-18T05:58:56.756Z,315.00
2017-09-18T05:59:12.977Z,315.00
2017-09-18T05:59:37.163Z,315.00
2017-09-18T05:59:54.358Z,315.00
2017-09-18T06:00:17.467Z,315.00
2017-09-18T06:00:35.506Z,315.00
2017-09-18T06:00:47.794Z,315.00
2017-09-18T06:00:56.059Z,315.00
2017-09-18T06:01:17.691Z,315.00
2017-09-18T06:01:33.762Z,315.00
2017-09-18T06:01:49.505Z,315.00
2017-09-18T06:02:06.179Z,315.00
2017-09-18T06:02:16.607Z,315.00
2017-09-18T06:02:34.355Z,315.00
2017-09-18T06:02:42.810Z,315.00
2017-09-18T06:02:56.966Z,315.00
2017-09-18T06:03:12.781Z,22.50
2017-09-18T06:03:21.601Z,45.00
2017-09-18T06:03:29.161Z,45.00
2017-09-18T06:03:37.492Z,45.00
2017-09-18T06:03:51.169Z,45.00
2017-09-18T06:04:07.132Z,45.00
2017-09-18T06:04:15.369Z,45.00
2017-09-18T06:04:23.309Z,135.00
2017-09-18T06:04:31.409Z,225.00
2017-09-18T06:04:39.750Z,225.00
2017-09-18T06:04:47.682Z,225.00
2017-09-18T06:04:55.814Z,225.00
2017-09-18T06:05:03.785Z,225.00
2017-09-18T06:05:18.897Z,225.00
2017-09-18T06:05:40.209Z,225.00
2017-09-18T06:05:55.531Z,225.00
2017-09-18T06:06:03.959Z,225.00
2017-09-18T06:06:15.794Z,225.00
2017-09-18T06:06:24.038Z,225.00
2017-09-18T06:06:38.125Z,225.00
2017-09-18T06:06:46.737Z,225.00
2017-09-18T06:06:54.485Z,225.00
2017-09-18T06:07:10.365Z,225.00
2017-09-18T06:07:20.063Z,225.00
2017-09-18T06:07:30.567Z,225.00
2017-09-18T06:07:53.775Z,225.00
2017-09-18T06:08:12.575Z,225.00
2017-09-18T06:08:29.735Z,225.00
2017-09-18T06:08:59.715Z,225.00
2017-09-18T06:09:07.117Z,225.00
2017-09-18T06:09:15.647Z,225.00
2017-09-18T06:09:32.139Z,135.00
2017-09-18T06:09:50.322Z,45.00
2017-09-18T06:10:03.966Z,45.00
2017-09-18T06:10:22.429Z,45.00
2017-09-18T06:10:36.384Z,45.00
2017-09-18T06:10:44.629Z,45.00
2017-09-18T06:10:52.567Z,0.00
2017-09-18T06:11:09.826Z,45.00
2017-09-18T06:11:18.092Z,45.00
2017-09-18T06:11:30.959Z,247.50
2017-09-18T06:11:43.673Z,247.50
2017-09-18T06:12:02.690Z,315.00
2017-09-18T06:12:11.383Z,315.00
2017-09-18T06:12:33.985Z,315.00
2017-09-18T06:12:42.627Z,315.00
2017-09-18T06:12:50.964Z,315.00
2017-09-18T06:12:59.643Z,315.00
2017-09-18T06:13:43.667Z,315.00
2017-09-18T06:14:00.378Z,225.00
2017-09-18T06:14:24.051Z,270.00
2017-09-18T06:14:35.926Z,270.00
2017-09-18T06:15:00.849Z,270.00
2017-09-18T06:15:15.566Z,270.00
2017-09-18T06:15:31.821Z,270.00
2017-09-18T06:15:53.670Z,270.00
2017-09-18T06:16:01.947Z,270.00
2017-09-18T06:16:17.789Z,337.50
2017-09-18T06:16:34.671Z,315.00
2017-09-18T06:16:42.790Z,315.00
2017-09-18T06:16:56.970Z,315.00
2017-09-18T06:17:14.682Z,270.00
2017-09-18T06:17:34.912Z,270.00
2017-09-18T06:17:49.174Z,270.00
2017-09-18T06:18:02.058Z,0.00
2017-09-18T06:18:14.422Z,0.00
2017-09-18T06:18:33.153Z,0.00
2017-09-18T06:18:48.083Z,0.00
2017-09-18T06:18:55.466Z,0.00
2017-09-18T06:19:03.632Z,0.00
2017-09-18T06:19:11.735Z,0.00
2017-09-18T06:19:26.990Z,337.50
2017-09-18T06:19:35.442Z,315.00
2017-09-18T06:19:53.368Z,315.00
2017-09-18T06:20:07.429Z,315.00
2017-09-18T06:20:22.855Z,315.00
2017-09-18T06:20:32.787Z,315.00
2017-09-18T06:20:49.033Z,315.00
2017-09-18T06:21:05.827Z,315.00
2017-09-18T06:23:55.172Z,0.00
2017-09-18T06:25:27.113Z,0.00
2017-09-18T06:26:35.793Z,0.00
2017-09-18T06:27:04.098Z,0.00
2017-09-18T06:27:11.864Z,0.00
2017-09-18T06:27:31.118Z,0.00
2017-09-18T06:27:49.064Z,0.00
2017-09-18T06:28:01.025Z,0.00
2017-09-18T06:28:23.520Z,0.00
2017-09-18T06:28:40.861Z,0.00
2017-09-18T06:28:48.751Z,0.00
2017-09-18T06:29:11.535Z,0.00
2017-09-18T06:29:44.515Z,0.00
2017-09-18T06:29:52.022Z,0.00
2017-09-18T06:30:25.726Z,0.00
2017-09-18T06:30:53.978Z,0.00
2017-09-18T06:31:11.142Z,0.00
2017-09-18T06:31:43.639Z,0.00
2017-09-18T06:31:50.802Z,0.00
2017-09-18T06:32:07.208Z,0.00
2017-09-18T06:32:30.143Z,315.00
2017-09-18T06:32:47.222Z,315.00
2017-09-18T06:32:55.829Z,315.00
2017-09-18T06:33:14.490Z,315.00
2017-09-18T06:33:22.146Z,315.00
2017-09-18T06:33:30.690Z,315.00
2017-09-18T06:33:38.431Z,315.00
2017-09-18T06:34:03.874Z,315.00
2017-09-18T06:34:19.506Z,315.00
2017-09-18T06:34:38.309Z,315.00
2017-09-18T06:34:59.522Z,315.00
2017-09-18T06:35:24.073Z,315.00
2017-09-18T06:36:12.462Z,315.00
2017-09-18T06:36:57.902Z,315.00
2017-09-18T06:37:23.274Z,315.00
2017-09-18T06:37:56.186Z,315.00
2017-09-18T06:38:16.089Z,315.00
2017-09-18T06:38:24.737Z,315.00
2017-09-18T06:38:50.544Z,315.00
2017-09-18T06:39:00.527Z,315.00
2017-09-18T06:39:16.501Z,315.00
2017-09-18T06:39:24.942Z,315.00
2017-09-18T06:39:42.638Z,315.00
2017-09-18T06:40:03.982Z,315.00
2017-09-18T06:40:19.749Z,315.00
2017-09-18T06:40:40.829Z,315.00
2017-09-18T06:41:10.299Z,315.00
2017-09-18T06:41:22.514Z,315.00
2017-09-18T06:41:49.511Z,315.00
2017-09-18T06:42:03.178Z,315.00
2017-09-18T06:42:17.944Z,315.00
2017-09-18T06:42:26.762Z,315.00
2017-09-18T06:42:34.689Z,315.00
2017-09-18T06:43:24.889Z,315.00
2017-09-18T06:43:42.545Z,315.00
2017-09-18T06:43:59.717Z,315.00
2017-09-18T06:44:15.698Z,315.00
2017-09-18T06:44:34.629Z,0.00
2017-09-18T06:44:46.513Z,0.00
2017-09-18T06:44:56.246Z,0.00
2017-09-18T06:45:04.585Z,0.00
2017-09-18T06:45:12.522Z,0.00
2017-09-18T06:45:32.588Z,0.00
2017-09-18T06:45:47.254Z,0.00
2017-09-18T06:46:13.238Z,0.00
2017-09-18T06:46:30.873Z,292.50
2017-09-18T06:46:55.329Z,270.00
2017-09-18T06:47:08.393Z,270.00
2017-09-18T06:47:16.810Z,270.00
2017-09-18T06:47:38.817Z,270.00
2017-09-18T06:47:46.940Z,270.00
2017-09-18T06:47:54.901Z,270.00
2017-09-18T06:48:03.018Z,270.00
2017-09-18T06:48:11.162Z,270.00
2017-09-18T06:48:29.049Z,270.00
2017-09-18T06:48:36.269Z,270.00
2017-09-18T06:49:11.231Z,270.00
2017-09-18T06:49:35.428Z,270.00
2017-09-18T06:49:42.930Z,270.00
2017-09-18T06:49:51.274Z,270.00
2017-09-18T06:49:59.413Z,270.00
2017-09-18T06:50:07.338Z,270.00
2017-09-18T06:50:15.298Z,270.00
2017-09-18T06:50:30.523Z,270.00
2017-09-18T06:50:49.316Z,0.00
2017-09-18T06:50:57.770Z,0.00
2017-09-18T06:51:17.634Z,0.00
2017-09-18T06:51:30.006Z,0.00
2017-09-18T06:51:38.995Z,0.00
2017-09-18T06:51:54.913Z,0.00
2017-09-18T06:52:14.846Z,0.00
2017-09-18T06:52:22.889Z,45.00
2017-09-18T06:52:30.845Z,45.00
2017-09-18T06:52:39.166Z,45.00
2017-09-18T06:52:57.074Z,45.00
2017-09-18T06:53:16.839Z,45.00
2017-09-18T06:53:28.155Z,45.00
2017-09-18T06:53:36.590Z,45.00
2017-09-18T06:53:48.039Z,45.00
2017-09-18T06:54:06.213Z,22.50
2017-09-18T06:54:14.609Z,0.00
2017-09-18T06:54:40.809Z,0.00
2017-09-18T06:54:49.114Z,0.00
2017-09-18T06:54:59.533Z,0.00
2017-09-18T06:55:14.997Z,0.00
2017-09-18T06:55:22.944Z,0.00
2017-09-18T06:55:30.889Z,0.00
2017-09-18T06:56:10.775Z,0.00
2017-09-18T06:56:29.150Z,0.00
2017-09-18T06:56:44.309Z,0.00
2017-09-18T06:57:00.957Z,0.00
2017-09-18T06:57:08.469Z,0.00
2017-09-18T06:57:26.928Z,0.00
2017-09-18T06:58:12.055Z,135.00
2017-09-18T06:58:34.077Z,135.00
2017-09-18T06:58:51.851Z,135.00
2017-09-18T06:59:13.731Z,90.00
2017-09-18T06:59:30.626Z,90.00
2017-09-18T06:59:47.295Z,67.50
2017-09-18T07:00:04.759Z,45.00
2017-09-18T07:00:25.003Z,45.00
2017-09-18T07:00:49.503Z,180.00
2017-09-18T07:01:16.862Z,180.00
2017-09-18T07:01:36.126Z,180.00
2017-09-18T07:02:00.964Z,180.00
2017-09-18T07:02:46.482Z,180.00
2017-09-18T07:03:07.549Z,315.00
2017-09-18T07:03:14.989Z,22.50
2017-09-18T07:03:28.873Z,0.00
2017-09-18T07:03:37.101Z,0.00
2017-09-18T07:03:53.969Z,0.00
2017-09-18T07:04:02.851Z,0.00
2017-09-18T07:04:11.032Z,0.00
2017-09-18T07:04:25.010Z,0.00
2017-09-18T07:04:32.653Z,0.00
2017-09-18T07:04:48.438Z,0.00
2017-09-18T07:05:06.078Z,0.00
2017-09-18T07:05:23.254Z,315.00
2017-09-18T07:05:30.694Z,315.00
2017-09-18T07:05:46.098Z,315.00
2017-09-18T07:05:54.402Z,315.00
2017-09-18T07:06:11.305Z,315.00
2017-09-18T07:06:20.795Z,315.00
2017-09-18T07:06:40.958Z,315.00
2017-09-18T07:06:58.127Z,315.00
2017-09-18T07:07:10.293Z,315.00
2017-09-18T07:07:34.145Z,315.00
2017-09-18T07:07:41.488Z,315.00
2017-09-18T07:07:59.739Z,315.00
2017-09-18T07:08:08.386Z,315.00
2017-09-18T07:08:16.341Z,315.00
2017-09-18T07:08:30.405Z,315.00
2017-09-18T07:08:38.621Z,315.00
2017-09-18T07:08:56.554Z,315.00
2017-09-18T07:09:07.583Z,90.00
2017-09-18T07:09:22.298Z,90.00
2017-09-18T07:09:40.881Z,90.00
2017-09-18T07:09:49.414Z,90.00
2017-09-18T07:09:57.921Z,135.00
2017-09-18T07:10:05.691Z,180.00
2017-09-18T07:10:27.429Z,180.00
2017-09-18T07:10:41.912Z,180.00
2017-09-18T07:10:55.866Z,180.00
2017-09-18T07:11:03.713Z,180.00
2017-09-18T07:11:12.042Z,180.00
2017-09-18T07:11:25.955Z,180.00
2017-09-18T07:11:34.133Z,135.00
2017-09-18T07:11:51.540Z,135.00
2017-09-18T07:12:05.196Z,135.00
2017-09-18T07:12:19.649Z,135.00
2017-09-18T07:12:27.561Z,135.00
2017-09-18T07:12:35.321Z,135.00
2017-09-18T07:12:43.463Z,112.50
2017-09-18T07:12:53.404Z,45.00
2017-09-18T07:13:09.083Z,45.00
2017-09-18T07:13:17.100Z,45.00
2017-09-18T07:13:25.237Z,45.00
2017-09-18T07:13:40.942Z,45.00
2017-09-18T07:13:48.763Z,45.00
2017-09-18T07:13:56.905Z,45.00
2017-09-18T07:14:11.778Z,45.00
2017-09-18T07:14:26.114Z,45.00
2017-09-18T07:14:34.553Z,45.00
2017-09-18T07:14:42.701Z,45.00
2017-09-18T07:14:58.251Z,45.00
2017-09-18T07:15:19.313Z,45.00
2017-09-18T07:15:35.697Z,45.00
2017-09-18T07:15:50.857Z,45.00
2017-09-18T07:16:06.717Z,45.00
2017-09-18T07:16:17.946Z,45.00
2017-09-18T07:16:27.615Z,45.00
2017-09-18T07:16:46.458Z,45.00
2017-09-18T07:16:58.218Z,45.00
2017-09-18T07:17:14.695Z,45.00
2017-09-18T07:17:25.733Z,45.00
2017-09-18T07:17:34.750Z,45.00
2017-09-18T07:17:49.236Z,45.00
2017-09-18T07:18:03.290Z,45.00
2017-09-18T07:18:12.951Z,45.00
2017-09-18T07:20:07.354Z,135.00
2017-09-18T07:20:25.686Z,225.00
2017-09-18T07:20:44.142Z,225.00
2017-09-18T07:20:52.294Z,225.00
2017-09-18T07:21:15.358Z,225.00
2017-09-18T07:21:24.185Z,225.00
2017-09-18T07:21:38.941Z,225.00
2017-09-18T07:21:46.642Z,225.00
2017-09-18T07:22:28.503Z,180.00
2017-09-18T07:22:40.717Z,180.00
2017-09-18T07:22:54.105Z,180.00
2017-09-18T07:23:23.587Z,180.00
2017-09-18T07:23:40.402Z,315.00
2017-09-18T07:23:54.587Z,315.00
2017-09-18T07:24:13.750Z,315.00
2017-09-18T07:24:32.410Z,315.00
2017-09-18T07:24:47.466Z,315.00
2017-09-18T07:24:56.281Z,315.00
2017-09-18T07:25:04.256Z,315.00
2017-09-18T07:25:47.633Z,90.00
2017-09-18T07:26:08.462Z,90.00
2017-09-18T07:26:42.859Z,90.00
2017-09-18T07:27:01.326Z,90.00
2017-09-18T07:27:10.138Z,90.00
2017-09-18T07:27:25.425Z,90.00
2017-09-18T07:27:33.266Z,90.00
2017-09-18T07:27:49.626Z,90.00
2017-09-18T07:28:02.302Z,90.00
2017-09-18T07:28:20.865Z,90.00
2017-09-18T07:28:35.850Z,90.00
2017-09-18T07:28:57.987Z,90.00
2017-09-18T07:29:12.434Z,90.00
2017-09-18T07:29:54.445Z,90.00
2017-09-18T07:30:02.558Z,90.00
2017-09-18T07:30:17.714Z,90.00
2017-09-18T07:30:27.082Z,90.00
2017-09-18T07:30:36.076Z,90.00
2017-09-18T07:31:02.453Z,90.00
2017-09-18T07:31:18.919Z,90.00
2017-09-18T07:31:41.933Z,90.00
2017-09-18T07:31:52.092Z,90.00
2017-09-18T07:32:03.039Z,90.00
2017-09-18T07:32:20.224Z,180.00
2017-09-18T07:32:40.978Z,180.00
2017-09-18T07:32:56.907Z,0.00
2017-09-18T07:33:07.266Z,0.00
2017-09-18T07:33:15.725Z,0.00
2017-09-18T07:33:35.925Z,0.00
2017-09-18T07:33:44.242Z,0.00
2017-09-18T07:33:59.593Z,0.00
2017-09-18T07:34:27.513Z,0.00
2017-09-18T07:34:46.874Z,0.00
2017-09-18T07:35:05.709Z,0.00
2017-09-18T07:35:23.381Z,0.00
2017-09-18T07:35:35.745Z,0.00
2017-09-18T07:35:58.401Z,0.00
2017-09-18T07:36:11.473Z,337.50
2017-09-18T07:36:25.843Z,315.00
2017-09-18T07:36:42.010Z,315.00
2017-09-18T07:36:50.219Z,315.00
2017-09-18T07:36:58.586Z,315.00
2017-09-18T07:37:06.511Z,315.00
2017-09-18T07:37:21.826Z,270.00
2017-09-18T07:37:31.840Z,270.00
2017-09-18T07:37:49.949Z,270.00
2017-09-18T07:37:58.946Z,270.00
2017-09-18T07:38:08.560Z,0.00
2017-09-18T07:38:18.338Z,337.50
2017-09-18T07:38:26.161Z,337.50
2017-09-18T07:38:34.272Z,0.00
2017-09-18T07:38:42.402Z,0.00
2017-09-18T07:38:57.282Z,0.00
2017-09-18T07:39:13.605Z,0.00
2017-09-18T07:39:31.790Z,0.00
2017-09-18T07:39:46.741Z,0.00
2017-09-18T07:40:05.899Z,0.00
2017-09-18T07:40:25.910Z,225.00
2017-09-18T07:40:35.504Z,45.00
2017-09-18T07:40:45.280Z,45.00
2017-09-18T07:40:54.839Z,135.00
2017-09-18T07:41:08.057Z,135.00
2017-09-18T07:41:16.726Z,135.00
2017-09-18T07:41:31.840Z,90.00
2017-09-18T07:41:40.760Z,45.00
2017-09-18T07:41:50.203Z,45.00
2017-09-18T07:41:58.752Z,45.00
2017-09-18T07:42:08.483Z,45.00
2017-09-18T07:42:17.850Z,45.00
2017-09-18T07:42:32.124Z,45.00
2017-09-18T07:42:46.974Z,45.00
2017-09-18T07:42:55.619Z,45.00
2017-09-18T07:43:10.313Z,45.00
2017-09-18T07:43:23.690Z,45.00
2017-09-18T07:43:51.078Z,45.00
2017-09-18T07:43:58.606Z,45.00
2017-09-18T07:44:12.441Z,45.00
2017-09-18T07:44:29.619Z,45.00
2017-09-18T07:44:47.493Z,45.00
2017-09-18T07:45:16.785Z,45.00
2017-09-18T07:45:29.041Z,45.00
2017-09-18T07:45:37.158Z,45.00
2017-09-18T07:45:57.198Z,45.00
2017-09-18T07:46:05.666Z,45.00
2017-09-18T07:46:13.989Z,45.00
2017-09-18T07:46:31.211Z,45.00
2017-09-18T07:46:48.809Z,45.00
2017-09-18T07:47:03.177Z,45.00
2017-09-18T07:47:12.022Z,45.00
2017-09-18T07:47:25.409Z,45.00
2017-09-18T07:47:40.665Z,45.00
2017-09-18T07:47:47.901Z,45.00
2017-09-18T07:48:09.433Z,45.00
2017-09-18T07:48:18.210Z,45.00
2017-09-18T07:48:41.570Z,45.00
2017-09-18T07:48:49.709Z,45.00
2017-09-18T07:48:58.057Z,45.00
2017-09-18T07:49:05.975Z,45.00
2017-09-18T07:49:20.909Z,45.00
2017-09-18T07:49:29.974Z,45.00
2017-09-18T07:49:43.345Z,45.00
2017-09-18T07:50:02.509Z,45.00
2017-09-18T07:50:20.397Z,45.00
2017-09-18T07:50:29.843Z,45.00
2017-09-18T07:50:43.285Z,45.00
2017-09-18T07:51:01.681Z,45.00
2017-09-18T07:51:15.112Z,45.00
2017-09-18T07:51:31.782Z,45.00
2017-09-18T07:51:39.729Z,45.00
2017-09-18T07:51:48.245Z,45.00
2017-09-18T07:52:03.713Z,45.00
2017-09-18T07:52:12.109Z,45.00
2017-09-18T07:52:19.882Z,45.00
2017-09-18T07:52:27.820Z,45.00
2017-09-18T07:52:35.957Z,45.00
2017-09-18T07:52:47.861Z,45.00
2017-09-18T07:52:56.472Z,45.00
2017-09-18T07:53:04.606Z,45.00
2017-09-18T07:53:12.938Z,45.00
2017-09-18T07:53:26.190Z,45.00
2017-09-18T07:53:35.088Z,45.00
2017-09-18T07:53:48.512Z,45.00
2017-09-18T07:53:56.933Z,45.00
2017-09-18T07:54:09.512Z,45.00
2017-09-18T07:54:26.690Z,45.00
2017-09-18T07:54:41.022Z,45.00
2017-09-18T07:54:49.158Z,45.00
2017-09-18T07:54:57.293Z,0.00
2017-09-18T07:55:09.199Z,0.00
2017-09-18T07:55:22.037Z,0.00
2017-09-18T07:55:30.397Z,0.00
2017-09-18T07:55:47.049Z,0.00
2017-09-18T07:56:06.821Z,0.00
2017-09-18T07:56:20.969Z,0.00
2017-09-18T07:56:33.937Z,0.00
2017-09-18T07:56:42.166Z,0.00
2017-09-18T07:57:04.561Z,0.00
2017-09-18T07:57:22.393Z,0.00
2017-09-18T07:57:38.101Z,0.00
2017-09-18T07:57:55.766Z,0.00
2017-09-18T07:58:14.053Z,0.00
2017-09-18T07:58:22.770Z,0.00